sensor_id;sensor_type;location;lat;lon;timestamp;P1;durP1;ratioP1;P2;durP2;ratioP2
29314;SDS011;16320;53.954;9.506;2023-05-07T00:02:26;30.42;;;20.30;;
29314;SDS011;16320;53.954;9.506;2023-05-07T00:05:30;25.30;;;17.58;;
29314;SDS011;16320;53.954;9.506;2023-05-07T00:08:35;28.55;;;19.15;;
29314;SDS011;16320;53.954;9.506;2023-05-07T00:11:39;28.33;;;18.20;;
29314;SDS011;16320;53.954;9.506;2023-05-07T00:14:44;24.85;;;17.35;;
29314;SDS011;16320;53.954;9.506;2023-05-07T00:17:49;22.63;;;16.63;;
29314;SDS011;16320;53.954;9.506;2023-05-07T00:20:54;22.45;;;15.57;;
29314;SDS011;16320;53.954;9.506;2023-05-07T00:23:58;21.80;;;15.55;;
29314;SDS011;16320;53.954;9.506;2023-05-07T00:27:03;19.60;;;14.30;;
29314;SDS011;16320;53.954;9.506;2023-05-07T00:30:07;19.58;;;14.82;;
29314;SDS011;16320;53.954;9.506;2023-05-07T00:33:12;17.25;;;13.63;;
29314;SDS011;16320;53.954;9.506;2023-05-07T00:36:17;18.17;;;12.85;;
29314;SDS011;16320;53.954;9.506;2023-05-07T00:42:25;18.77;;;12.65;;
29314;SDS011;16320;53.954;9.506;2023-05-07T00:45:30;20.67;;;12.82;;
29314;SDS011;16320;53.954;9.506;2023-05-07T00:48:34;20.40;;;13.40;;
29314;SDS011;16320;53.954;9.506;2023-05-07T00:51:38;15.80;;;12.23;;
29314;SDS011;16320;53.954;9.506;2023-05-07T00:54:43;18.83;;;13.25;;
29314;SDS011;16320;53.954;9.506;2023-05-07T00:57:48;17.45;;;12.00;;
29314;SDS011;16320;53.954;9.506;2023-05-07T01:00:54;17.92;;;12.82;;
29314;SDS011;16320;53.954;9.506;2023-05-07T01:03:59;15.38;;;11.55;;
29314;SDS011;16320;53.954;9.506;2023-05-07T01:07:04;14.27;;;11.00;;
29314;SDS011;16320;53.954;9.506;2023-05-07T01:10:09;15.38;;;11.70;;
29314;SDS011;16320;53.954;9.506;2023-05-07T01:13:16;19.30;;;12.73;;
29314;SDS011;16320;53.954;9.506;2023-05-07T01:16:20;21.38;;;11.80;;
29314;SDS011;16320;53.954;9.506;2023-05-07T01:19:25;19.60;;;12.00;;
29314;SDS011;16320;53.954;9.506;2023-05-07T01:22:36;18.08;;;13.00;;
29314;SDS011;16320;53.954;9.506;2023-05-07T01:25:42;19.33;;;13.50;;
29314;SDS011;16320;53.954;9.506;2023-05-07T01:28:46;38.15;;;13.90;;
29314;SDS011;16320;53.954;9.506;2023-05-07T01:31:51;16.58;;;12.20;;
29314;SDS011;16320;53.954;9.506;2023-05-07T01:34:57;17.85;;;11.50;;
29314;SDS011;16320;53.954;9.506;2023-05-07T01:38:03;19.40;;;12.43;;
29314;SDS011;16320;53.954;9.506;2023-05-07T01:41:09;18.23;;;12.60;;
29314;SDS011;16320;53.954;9.506;2023-05-07T01:44:15;19.10;;;12.63;;
29314;SDS011;16320;53.954;9.506;2023-05-07T01:47:21;19.23;;;13.25;;
29314;SDS011;16320;53.954;9.506;2023-05-07T01:50:27;16.70;;;12.38;;
29314;SDS011;16320;53.954;9.506;2023-05-07T01:53:35;20.35;;;13.63;;
29314;SDS011;16320;53.954;9.506;2023-05-07T01:56:41;17.95;;;13.07;;
29314;SDS011;16320;53.954;9.506;2023-05-07T01:59:46;20.90;;;13.90;;
29314;SDS011;16320;53.954;9.506;2023-05-07T02:02:50;19.27;;;12.80;;
29314;SDS011;16320;53.954;9.506;2023-05-07T02:05:56;21.02;;;14.52;;
29314;SDS011;16320;53.954;9.506;2023-05-07T02:09:01;19.88;;;13.82;;
29314;SDS011;16320;53.954;9.506;2023-05-07T02:12:05;22.95;;;13.85;;
29314;SDS011;16320;53.954;9.506;2023-05-07T02:15:10;22.65;;;14.75;;
29314;SDS011;16320;53.954;9.506;2023-05-07T02:18:15;23.33;;;13.52;;
29314;SDS011;16320;53.954;9.506;2023-05-07T02:21:20;19.38;;;14.35;;
29314;SDS011;16320;53.954;9.506;2023-05-07T02:24:25;19.45;;;13.98;;
29314;SDS011;16320;53.954;9.506;2023-05-07T02:27:29;19.92;;;14.70;;
29314;SDS011;16320;53.954;9.506;2023-05-07T02:30:35;19.33;;;12.45;;
29314;SDS011;16320;53.954;9.506;2023-05-07T02:33:40;19.30;;;13.88;;
29314;SDS011;16320;53.954;9.506;2023-05-07T02:36:44;19.98;;;13.60;;
29314;SDS011;16320;53.954;9.506;2023-05-07T02:39:49;21.45;;;14.25;;
29314;SDS011;16320;53.954;9.506;2023-05-07T02:42:54;17.60;;;12.88;;
29314;SDS011;16320;53.954;9.506;2023-05-07T02:49:11;19.58;;;13.43;;
29314;SDS011;16320;53.954;9.506;2023-05-07T02:52:15;21.52;;;13.88;;
29314;SDS011;16320;53.954;9.506;2023-05-07T02:55:19;18.02;;;12.93;;
29314;SDS011;16320;53.954;9.506;2023-05-07T02:58:24;19.88;;;14.50;;
29314;SDS011;16320;53.954;9.506;2023-05-07T03:01:29;19.83;;;13.68;;
29314;SDS011;16320;53.954;9.506;2023-05-07T03:04:33;20.15;;;13.90;;
29314;SDS011;16320;53.954;9.506;2023-05-07T03:07:38;19.38;;;13.45;;
29314;SDS011;16320;53.954;9.506;2023-05-07T03:10:43;19.40;;;14.55;;
29314;SDS011;16320;53.954;9.506;2023-05-07T03:13:47;21.38;;;13.07;;
29314;SDS011;16320;53.954;9.506;2023-05-07T03:16:53;18.70;;;13.50;;
29314;SDS011;16320;53.954;9.506;2023-05-07T03:19:57;19.73;;;14.07;;
29314;SDS011;16320;53.954;9.506;2023-05-07T03:23:02;20.52;;;13.15;;
29314;SDS011;16320;53.954;9.506;2023-05-07T03:26:07;19.83;;;13.93;;
29314;SDS011;16320;53.954;9.506;2023-05-07T03:29:11;22.88;;;15.80;;
29314;SDS011;16320;53.954;9.506;2023-05-07T03:38:24;24.58;;;15.07;;
29314;SDS011;16320;53.954;9.506;2023-05-07T03:41:28;21.33;;;15.07;;
29314;SDS011;16320;53.954;9.506;2023-05-07T03:44:33;19.70;;;14.30;;
29314;SDS011;16320;53.954;9.506;2023-05-07T03:47:39;20.00;;;13.35;;
29314;SDS011;16320;53.954;9.506;2023-05-07T03:50:44;21.30;;;14.02;;
29314;SDS011;16320;53.954;9.506;2023-05-07T03:53:48;18.88;;;13.50;;
29314;SDS011;16320;53.954;9.506;2023-05-07T03:56:53;19.85;;;13.20;;
29314;SDS011;16320;53.954;9.506;2023-05-07T03:59:57;19.42;;;14.10;;
29314;SDS011;16320;53.954;9.506;2023-05-07T04:03:01;20.10;;;14.50;;
29314;SDS011;16320;53.954;9.506;2023-05-07T04:06:07;20.48;;;14.93;;
29314;SDS011;16320;53.954;9.506;2023-05-07T04:09:11;23.42;;;15.23;;
29314;SDS011;16320;53.954;9.506;2023-05-07T04:12:16;19.95;;;13.68;;
29314;SDS011;16320;53.954;9.506;2023-05-07T04:15:21;22.48;;;15.00;;
29314;SDS011;16320;53.954;9.506;2023-05-07T04:18:25;18.92;;;13.18;;
29314;SDS011;16320;53.954;9.506;2023-05-07T04:24:34;21.77;;;13.43;;
29314;SDS011;16320;53.954;9.506;2023-05-07T04:27:38;17.05;;;12.80;;
29314;SDS011;16320;53.954;9.506;2023-05-07T04:30:43;20.55;;;13.48;;
29314;SDS011;16320;53.954;9.506;2023-05-07T04:33:47;18.33;;;12.85;;
29314;SDS011;16320;53.954;9.506;2023-05-07T04:36:52;17.70;;;11.35;;
29314;SDS011;16320;53.954;9.506;2023-05-07T04:39:56;15.48;;;11.20;;
29314;SDS011;16320;53.954;9.506;2023-05-07T04:43:01;16.05;;;12.23;;
29314;SDS011;16320;53.954;9.506;2023-05-07T04:46:05;16.23;;;11.48;;
29314;SDS011;16320;53.954;9.506;2023-05-07T04:49:10;22.17;;;11.60;;
29314;SDS011;16320;53.954;9.506;2023-05-07T04:52:14;16.58;;;12.00;;
29314;SDS011;16320;53.954;9.506;2023-05-07T05:01:28;20.88;;;11.38;;
29314;SDS011;16320;53.954;9.506;2023-05-07T05:04:32;18.05;;;12.82;;
29314;SDS011;16320;53.954;9.506;2023-05-07T05:07:37;16.75;;;11.70;;
29314;SDS011;16320;53.954;9.506;2023-05-07T05:10:41;18.60;;;12.20;;
29314;SDS011;16320;53.954;9.506;2023-05-07T05:13:46;16.00;;;11.38;;
29314;SDS011;16320;53.954;9.506;2023-05-07T05:16:53;16.77;;;11.88;;
29314;SDS011;16320;53.954;9.506;2023-05-07T05:19:57;14.18;;;10.88;;
29314;SDS011;16320;53.954;9.506;2023-05-07T05:23:01;16.98;;;11.02;;
29314;SDS011;16320;53.954;9.506;2023-05-07T05:26:06;16.65;;;11.45;;
29314;SDS011;16320;53.954;9.506;2023-05-07T05:29:10;18.55;;;12.00;;
29314;SDS011;16320;53.954;9.506;2023-05-07T05:32:15;15.27;;;11.05;;
29314;SDS011;16320;53.954;9.506;2023-05-07T05:35:19;15.82;;;11.68;;
29314;SDS011;16320;53.954;9.506;2023-05-07T05:38:24;16.40;;;10.88;;
29314;SDS011;16320;53.954;9.506;2023-05-07T05:41:28;14.27;;;11.32;;
29314;SDS011;16320;53.954;9.506;2023-05-07T05:44:33;17.95;;;11.13;;
29314;SDS011;16320;53.954;9.506;2023-05-07T05:47:38;15.77;;;11.20;;
29314;SDS011;16320;53.954;9.506;2023-05-07T05:50:43;16.52;;;12.52;;
29314;SDS011;16320;53.954;9.506;2023-05-07T05:53:53;15.50;;;10.90;;
29314;SDS011;16320;53.954;9.506;2023-05-07T05:56:58;15.02;;;10.88;;
29314;SDS011;16320;53.954;9.506;2023-05-07T06:00:02;13.82;;;10.02;;
29314;SDS011;16320;53.954;9.506;2023-05-07T06:03:09;15.00;;;10.27;;
29314;SDS011;16320;53.954;9.506;2023-05-07T06:06:14;14.75;;;10.43;;
29314;SDS011;16320;53.954;9.506;2023-05-07T06:15:27;14.70;;;11.02;;
29314;SDS011;16320;53.954;9.506;2023-05-07T06:18:32;14.68;;;11.05;;
29314;SDS011;16320;53.954;9.506;2023-05-07T06:21:36;15.35;;;10.57;;
29314;SDS011;16320;53.954;9.506;2023-05-07T06:27:44;13.32;;;9.65;;
29314;SDS011;16320;53.954;9.506;2023-05-07T06:30:49;15.95;;;10.63;;
29314;SDS011;16320;53.954;9.506;2023-05-07T06:33:53;14.45;;;10.25;;
29314;SDS011;16320;53.954;9.506;2023-05-07T06:36:59;16.77;;;10.73;;
29314;SDS011;16320;53.954;9.506;2023-05-07T06:40:04;13.60;;;10.18;;
29314;SDS011;16320;53.954;9.506;2023-05-07T06:43:11;15.27;;;10.63;;
29314;SDS011;16320;53.954;9.506;2023-05-07T06:52:24;14.55;;;10.25;;
29314;SDS011;16320;53.954;9.506;2023-05-07T06:55:28;14.43;;;10.48;;
29314;SDS011;16320;53.954;9.506;2023-05-07T06:58:32;12.35;;;9.43;;
29314;SDS011;16320;53.954;9.506;2023-05-07T07:01:37;13.57;;;9.85;;
29314;SDS011;16320;53.954;9.506;2023-05-07T07:04:41;13.45;;;9.48;;
29314;SDS011;16320;53.954;9.506;2023-05-07T07:07:46;11.60;;;9.07;;
29314;SDS011;16320;53.954;9.506;2023-05-07T07:10:57;11.60;;;9.15;;
29314;SDS011;16320;53.954;9.506;2023-05-07T07:14:01;14.23;;;8.80;;
29314;SDS011;16320;53.954;9.506;2023-05-07T07:17:06;12.98;;;9.50;;
29314;SDS011;16320;53.954;9.506;2023-05-07T07:20:10;11.82;;;8.48;;
29314;SDS011;16320;53.954;9.506;2023-05-07T07:23:15;10.18;;;8.20;;
29314;SDS011;16320;53.954;9.506;2023-05-07T07:26:19;11.43;;;7.93;;
29314;SDS011;16320;53.954;9.506;2023-05-07T07:29:24;11.63;;;7.47;;
29314;SDS011;16320;53.954;9.506;2023-05-07T07:32:30;10.05;;;7.47;;
29314;SDS011;16320;53.954;9.506;2023-05-07T07:35:36;8.55;;;7.25;;
29314;SDS011;16320;53.954;9.506;2023-05-07T07:38:40;9.90;;;7.05;;
29314;SDS011;16320;53.954;9.506;2023-05-07T07:41:45;10.40;;;7.25;;
29314;SDS011;16320;53.954;9.506;2023-05-07T07:44:49;11.30;;;7.53;;
29314;SDS011;16320;53.954;9.506;2023-05-07T07:47:53;10.10;;;6.97;;
29314;SDS011;16320;53.954;9.506;2023-05-07T07:50:58;11.45;;;7.03;;
29314;SDS011;16320;53.954;9.506;2023-05-07T07:54:02;9.48;;;7.18;;
29314;SDS011;16320;53.954;9.506;2023-05-07T07:57:07;9.23;;;6.95;;
29314;SDS011;16320;53.954;9.506;2023-05-07T08:00:11;8.98;;;6.32;;
29314;SDS011;16320;53.954;9.506;2023-05-07T08:03:17;12.32;;;7.30;;
29314;SDS011;16320;53.954;9.506;2023-05-07T08:06:22;10.77;;;7.32;;
29314;SDS011;16320;53.954;9.506;2023-05-07T08:09:26;9.07;;;6.82;;
29314;SDS011;16320;53.954;9.506;2023-05-07T08:12:30;9.40;;;6.63;;
29314;SDS011;16320;53.954;9.506;2023-05-07T08:15:35;8.13;;;6.70;;
29314;SDS011;16320;53.954;9.506;2023-05-07T08:18:39;9.63;;;6.50;;
29314;SDS011;16320;53.954;9.506;2023-05-07T08:21:43;7.95;;;5.93;;
29314;SDS011;16320;53.954;9.506;2023-05-07T08:24:48;8.57;;;6.55;;
29314;SDS011;16320;53.954;9.506;2023-05-07T08:27:53;8.00;;;5.75;;
29314;SDS011;16320;53.954;9.506;2023-05-07T08:30:57;6.88;;;5.57;;
29314;SDS011;16320;53.954;9.506;2023-05-07T08:34:04;7.78;;;6.30;;
29314;SDS011;16320;53.954;9.506;2023-05-07T08:37:12;7.80;;;5.70;;
29314;SDS011;16320;53.954;9.506;2023-05-07T08:40:17;7.88;;;6.05;;
29314;SDS011;16320;53.954;9.506;2023-05-07T08:43:23;7.10;;;5.45;;
29314;SDS011;16320;53.954;9.506;2023-05-07T08:46:31;8.70;;;5.35;;
29314;SDS011;16320;53.954;9.506;2023-05-07T08:49:36;7.25;;;5.30;;
29314;SDS011;16320;53.954;9.506;2023-05-07T08:52:40;11.70;;;6.03;;
29314;SDS011;16320;53.954;9.506;2023-05-07T08:55:59;8.40;;;5.47;;
29314;SDS011;16320;53.954;9.506;2023-05-07T08:59:10;6.43;;;4.93;;
29314;SDS011;16320;53.954;9.506;2023-05-07T09:02:16;6.47;;;5.38;;
29314;SDS011;16320;53.954;9.506;2023-05-07T09:05:21;6.60;;;4.70;;
29314;SDS011;16320;53.954;9.506;2023-05-07T09:08:26;5.70;;;4.72;;
29314;SDS011;16320;53.954;9.506;2023-05-07T09:11:31;6.38;;;4.95;;
29314;SDS011;16320;53.954;9.506;2023-05-07T09:14:36;6.20;;;4.97;;
29314;SDS011;16320;53.954;9.506;2023-05-07T09:17:41;10.48;;;5.07;;
29314;SDS011;16320;53.954;9.506;2023-05-07T09:20:46;6.50;;;4.40;;
29314;SDS011;16320;53.954;9.506;2023-05-07T09:27:05;5.75;;;4.03;;
29314;SDS011;16320;53.954;9.506;2023-05-07T09:30:12;5.43;;;4.65;;
29314;SDS011;16320;53.954;9.506;2023-05-07T09:33:17;6.43;;;4.53;;
29314;SDS011;16320;53.954;9.506;2023-05-07T09:36:22;7.05;;;4.20;;
29314;SDS011;16320;53.954;9.506;2023-05-07T09:39:40;5.88;;;4.40;;
29314;SDS011;16320;53.954;9.506;2023-05-07T09:42:53;4.40;;;4.00;;
29314;SDS011;16320;53.954;9.506;2023-05-07T09:45:58;7.18;;;3.97;;
29314;SDS011;16320;53.954;9.506;2023-05-07T09:49:13;6.35;;;4.50;;
29314;SDS011;16320;53.954;9.506;2023-05-07T09:52:25;5.72;;;4.32;;
29314;SDS011;16320;53.954;9.506;2023-05-07T09:55:33;8.23;;;5.22;;
29314;SDS011;16320;53.954;9.506;2023-05-07T09:58:39;5.25;;;4.13;;
29314;SDS011;16320;53.954;9.506;2023-05-07T10:01:44;6.55;;;4.38;;
29314;SDS011;16320;53.954;9.506;2023-05-07T10:04:49;5.70;;;4.15;;
29314;SDS011;16320;53.954;9.506;2023-05-07T10:07:54;6.20;;;4.38;;
29314;SDS011;16320;53.954;9.506;2023-05-07T10:11:01;4.75;;;4.20;;
29314;SDS011;16320;53.954;9.506;2023-05-07T10:14:10;5.65;;;4.60;;
29314;SDS011;16320;53.954;9.506;2023-05-07T10:17:14;5.30;;;4.53;;
29314;SDS011;16320;53.954;9.506;2023-05-07T10:20:20;6.20;;;4.53;;
29314;SDS011;16320;53.954;9.506;2023-05-07T10:23:25;6.13;;;4.10;;
29314;SDS011;16320;53.954;9.506;2023-05-07T10:26:31;4.38;;;3.85;;
29314;SDS011;16320;53.954;9.506;2023-05-07T10:29:39;4.20;;;3.80;;
29314;SDS011;16320;53.954;9.506;2023-05-07T10:33:22;6.75;;;3.70;;
29314;SDS011;16320;53.954;9.506;2023-05-07T10:36:30;7.55;;;4.63;;
29314;SDS011;16320;53.954;9.506;2023-05-07T10:39:40;7.43;;;4.07;;
29314;SDS011;16320;53.954;9.506;2023-05-07T10:42:54;5.32;;;3.97;;
29314;SDS011;16320;53.954;9.506;2023-05-07T10:46:14;5.90;;;4.15;;
29314;SDS011;16320;53.954;9.506;2023-05-07T10:49:23;4.60;;;3.72;;
29314;SDS011;16320;53.954;9.506;2023-05-07T10:52:27;8.52;;;4.28;;
29314;SDS011;16320;53.954;9.506;2023-05-07T10:55:34;6.68;;;4.10;;
29314;SDS011;16320;53.954;9.506;2023-05-07T11:02:16;4.57;;;3.97;;
29314;SDS011;16320;53.954;9.506;2023-05-07T11:05:21;5.05;;;3.90;;
29314;SDS011;16320;53.954;9.506;2023-05-07T11:08:30;4.20;;;3.45;;
29314;SDS011;16320;53.954;9.506;2023-05-07T11:12:00;4.85;;;3.30;;
29314;SDS011;16320;53.954;9.506;2023-05-07T11:15:08;6.13;;;3.55;;
29314;SDS011;16320;53.954;9.506;2023-05-07T11:18:19;4.25;;;3.55;;
29314;SDS011;16320;53.954;9.506;2023-05-07T11:21:36;3.42;;;3.13;;
29314;SDS011;16320;53.954;9.506;2023-05-07T11:24:44;5.63;;;3.63;;
29314;SDS011;16320;53.954;9.506;2023-05-07T11:27:50;6.28;;;3.15;;
29314;SDS011;16320;53.954;9.506;2023-05-07T11:30:56;3.20;;;2.90;;
29314;SDS011;16320;53.954;9.506;2023-05-07T11:34:01;4.25;;;3.20;;
29314;SDS011;16320;53.954;9.506;2023-05-07T11:37:05;3.72;;;3.10;;
29314;SDS011;16320;53.954;9.506;2023-05-07T11:40:10;4.70;;;3.20;;
29314;SDS011;16320;53.954;9.506;2023-05-07T11:43:17;4.10;;;3.13;;
29314;SDS011;16320;53.954;9.506;2023-05-07T11:46:23;7.03;;;3.05;;
29314;SDS011;16320;53.954;9.506;2023-05-07T11:49:28;2.88;;;2.60;;
29314;SDS011;16320;53.954;9.506;2023-05-07T11:52:33;3.60;;;3.00;;
29314;SDS011;16320;53.954;9.506;2023-05-07T11:55:38;5.10;;;3.05;;
29314;SDS011;16320;53.954;9.506;2023-05-07T11:58:43;4.07;;;2.58;;
29314;SDS011;16320;53.954;9.506;2023-05-07T12:01:49;3.85;;;3.30;;
29314;SDS011;16320;53.954;9.506;2023-05-07T12:04:54;3.58;;;2.50;;
29314;SDS011;16320;53.954;9.506;2023-05-07T12:07:58;6.15;;;2.67;;
29314;SDS011;16320;53.954;9.506;2023-05-07T12:14:10;5.88;;;2.50;;
29314;SDS011;16320;53.954;9.506;2023-05-07T12:17:15;3.05;;;2.03;;
29314;SDS011;16320;53.954;9.506;2023-05-07T12:20:20;2.42;;;2.08;;
29314;SDS011;16320;53.954;9.506;2023-05-07T12:23:25;2.20;;;1.73;;
29314;SDS011;16320;53.954;9.506;2023-05-07T12:26:30;3.00;;;2.03;;
29314;SDS011;16320;53.954;9.506;2023-05-07T12:29:34;8.65;;;1.90;;
29314;SDS011;16320;53.954;9.506;2023-05-07T12:32:39;2.03;;;1.83;;
29314;SDS011;16320;53.954;9.506;2023-05-07T12:35:43;3.40;;;1.83;;
29314;SDS011;16320;53.954;9.506;2023-05-07T12:38:49;1.88;;;1.77;;
29314;SDS011;16320;53.954;9.506;2023-05-07T12:44:59;2.03;;;1.50;;
29314;SDS011;16320;53.954;9.506;2023-05-07T12:48:11;4.28;;;2.00;;
29314;SDS011;16320;53.954;9.506;2023-05-07T12:51:16;2.95;;;1.70;;
29314;SDS011;16320;53.954;9.506;2023-05-07T12:57:42;1.65;;;1.55;;
29314;SDS011;16320;53.954;9.506;2023-05-07T13:00:52;2.35;;;1.60;;
29314;SDS011;16320;53.954;9.506;2023-05-07T13:04:00;1.83;;;1.58;;
29314;SDS011;16320;53.954;9.506;2023-05-07T13:07:06;1.83;;;1.60;;
29314;SDS011;16320;53.954;9.506;2023-05-07T13:10:11;1.98;;;1.48;;
29314;SDS011;16320;53.954;9.506;2023-05-07T13:13:15;2.63;;;1.50;;
29314;SDS011;16320;53.954;9.506;2023-05-07T13:16:20;1.65;;;1.52;;
29314;SDS011;16320;53.954;9.506;2023-05-07T13:19:25;1.85;;;1.40;;
29314;SDS011;16320;53.954;9.506;2023-05-07T13:22:32;4.30;;;1.33;;
29314;SDS011;16320;53.954;9.506;2023-05-07T13:25:36;3.60;;;1.50;;
29314;SDS011;16320;53.954;9.506;2023-05-07T13:28:42;2.28;;;1.67;;
29314;SDS011;16320;53.954;9.506;2023-05-07T13:31:47;2.08;;;1.55;;
29314;SDS011;16320;53.954;9.506;2023-05-07T13:34:53;2.45;;;1.50;;
29314;SDS011;16320;53.954;9.506;2023-05-07T13:37:57;2.45;;;1.48;;
29314;SDS011;16320;53.954;9.506;2023-05-07T13:41:01;1.50;;;1.40;;
29314;SDS011;16320;53.954;9.506;2023-05-07T13:44:06;1.08;;;1.05;;
29314;SDS011;16320;53.954;9.506;2023-05-07T13:47:11;2.88;;;1.25;;
29314;SDS011;16320;53.954;9.506;2023-05-07T13:50:15;2.80;;;1.75;;
29314;SDS011;16320;53.954;9.506;2023-05-07T13:53:20;7.30;;;1.40;;
29314;SDS011;16320;53.954;9.506;2023-05-07T13:56:24;2.03;;;1.38;;
29314;SDS011;16320;53.954;9.506;2023-05-07T13:59:29;2.30;;;1.60;;
29314;SDS011;16320;53.954;9.506;2023-05-07T14:02:33;2.60;;;1.40;;
29314;SDS011;16320;53.954;9.506;2023-05-07T14:05:38;1.60;;;1.00;;
29314;SDS011;16320;53.954;9.506;2023-05-07T14:08:42;1.38;;;1.00;;
29314;SDS011;16320;53.954;9.506;2023-05-07T14:11:47;2.13;;;1.33;;
29314;SDS011;16320;53.954;9.506;2023-05-07T14:14:54;1.73;;;1.00;;
29314;SDS011;16320;53.954;9.506;2023-05-07T14:18:02;1.05;;;0.95;;
29314;SDS011;16320;53.954;9.506;2023-05-07T14:21:06;2.53;;;1.10;;
29314;SDS011;16320;53.954;9.506;2023-05-07T14:24:10;1.95;;;1.35;;
29314;SDS011;16320;53.954;9.506;2023-05-07T14:27:15;1.40;;;1.30;;
29314;SDS011;16320;53.954;9.506;2023-05-07T14:30:20;1.33;;;1.23;;
29314;SDS011;16320;53.954;9.506;2023-05-07T14:33:27;34.15;;;22.23;;
29314;SDS011;16320;53.954;9.506;2023-05-07T14:36:32;4.63;;;1.65;;
29314;SDS011;16320;53.954;9.506;2023-05-07T14:39:36;2.92;;;2.20;;
29314;SDS011;16320;53.954;9.506;2023-05-07T14:42:41;4.07;;;2.50;;
29314;SDS011;16320;53.954;9.506;2023-05-07T14:45:46;1.42;;;1.33;;
29314;SDS011;16320;53.954;9.506;2023-05-07T14:48:50;1.40;;;1.30;;
29314;SDS011;16320;53.954;9.506;2023-05-07T14:51:57;2.25;;;1.52;;
29314;SDS011;16320;53.954;9.506;2023-05-07T14:55:06;1.90;;;1.13;;
29314;SDS011;16320;53.954;9.506;2023-05-07T14:58:12;1.67;;;1.58;;
29314;SDS011;16320;53.954;9.506;2023-05-07T15:01:16;2.05;;;1.90;;
29314;SDS011;16320;53.954;9.506;2023-05-07T15:07:25;1.83;;;1.58;;
29314;SDS011;16320;53.954;9.506;2023-05-07T15:10:29;2.35;;;1.20;;
29314;SDS011;16320;53.954;9.506;2023-05-07T15:13:33;1.60;;;1.30;;
29314;SDS011;16320;53.954;9.506;2023-05-07T15:16:38;2.42;;;2.17;;
29314;SDS011;16320;53.954;9.506;2023-05-07T15:19:42;3.03;;;1.35;;
29314;SDS011;16320;53.954;9.506;2023-05-07T15:22:50;2.03;;;1.30;;
29314;SDS011;16320;53.954;9.506;2023-05-07T15:25:54;2.88;;;1.70;;
29314;SDS011;16320;53.954;9.506;2023-05-07T15:28:59;2.03;;;1.30;;
29314;SDS011;16320;53.954;9.506;2023-05-07T15:32:03;2.85;;;1.30;;
29314;SDS011;16320;53.954;9.506;2023-05-07T15:35:09;2.65;;;1.48;;
29314;SDS011;16320;53.954;9.506;2023-05-07T15:38:14;4.13;;;1.17;;
29314;SDS011;16320;53.954;9.506;2023-05-07T15:41:19;1.70;;;1.60;;
29314;SDS011;16320;53.954;9.506;2023-05-07T15:44:24;3.90;;;1.77;;
29314;SDS011;16320;53.954;9.506;2023-05-07T15:47:32;1.85;;;1.55;;
29314;SDS011;16320;53.954;9.506;2023-05-07T15:50:40;1.85;;;1.20;;
29314;SDS011;16320;53.954;9.506;2023-05-07T15:53:45;3.65;;;2.40;;
29314;SDS011;16320;53.954;9.506;2023-05-07T15:56:50;1.25;;;1.15;;
29314;SDS011;16320;53.954;9.506;2023-05-07T15:59:54;4.00;;;1.90;;
29314;SDS011;16320;53.954;9.506;2023-05-07T16:02:58;2.95;;;1.77;;
29314;SDS011;16320;53.954;9.506;2023-05-07T16:06:03;2.50;;;1.70;;
29314;SDS011;16320;53.954;9.506;2023-05-07T16:09:08;3.65;;;1.77;;
29314;SDS011;16320;53.954;9.506;2023-05-07T16:12:13;2.92;;;2.10;;
29314;SDS011;16320;53.954;9.506;2023-05-07T16:15:18;1.85;;;1.75;;
29314;SDS011;16320;53.954;9.506;2023-05-07T16:24:31;3.80;;;2.13;;
29314;SDS011;16320;53.954;9.506;2023-05-07T16:27:36;2.08;;;1.85;;
29314;SDS011;16320;53.954;9.506;2023-05-07T16:30:40;2.33;;;1.73;;
29314;SDS011;16320;53.954;9.506;2023-05-07T16:33:45;1.77;;;1.60;;
29314;SDS011;16320;53.954;9.506;2023-05-07T16:36:49;1.60;;;1.50;;
29314;SDS011;16320;53.954;9.506;2023-05-07T16:39:54;2.28;;;1.65;;
29314;SDS011;16320;53.954;9.506;2023-05-07T16:42:59;2.10;;;1.85;;
29314;SDS011;16320;53.954;9.506;2023-05-07T16:46:04;3.83;;;2.15;;
29314;SDS011;16320;53.954;9.506;2023-05-07T16:49:08;1.85;;;1.65;;
29314;SDS011;16320;53.954;9.506;2023-05-07T16:52:12;2.88;;;2.03;;
29314;SDS011;16320;53.954;9.506;2023-05-07T16:55:17;3.65;;;3.13;;
29314;SDS011;16320;53.954;9.506;2023-05-07T16:58:21;2.03;;;1.60;;
29314;SDS011;16320;53.954;9.506;2023-05-07T17:01:26;3.00;;;2.03;;
29314;SDS011;16320;53.954;9.506;2023-05-07T17:04:30;4.93;;;3.72;;
29314;SDS011;16320;53.954;9.506;2023-05-07T17:07:34;4.30;;;3.47;;
29314;SDS011;16320;53.954;9.506;2023-05-07T17:10:39;3.92;;;2.85;;
29314;SDS011;16320;53.954;9.506;2023-05-07T17:13:43;4.55;;;3.47;;
29314;SDS011;16320;53.954;9.506;2023-05-07T17:16:48;8.38;;;3.75;;
29314;SDS011;16320;53.954;9.506;2023-05-07T17:19:52;5.43;;;3.90;;
29314;SDS011;16320;53.954;9.506;2023-05-07T17:26:00;4.45;;;2.85;;
29314;SDS011;16320;53.954;9.506;2023-05-07T17:29:05;7.07;;;2.95;;
29314;SDS011;16320;53.954;9.506;2023-05-07T17:32:09;1.50;;;1.33;;
29314;SDS011;16320;53.954;9.506;2023-05-07T17:35:14;2.17;;;1.80;;
29314;SDS011;16320;53.954;9.506;2023-05-07T17:38:18;5.88;;;2.15;;
29314;SDS011;16320;53.954;9.506;2023-05-07T17:41:23;2.03;;;1.75;;
29314;SDS011;16320;53.954;9.506;2023-05-07T17:44:28;5.55;;;2.00;;
29314;SDS011;16320;53.954;9.506;2023-05-07T17:47:33;2.20;;;2.00;;
29314;SDS011;16320;53.954;9.506;2023-05-07T17:50:47;4.32;;;3.30;;
29314;SDS011;16320;53.954;9.506;2023-05-07T17:53:53;2.05;;;1.85;;
29314;SDS011;16320;53.954;9.506;2023-05-07T17:57:00;2.00;;;1.80;;
29314;SDS011;16320;53.954;9.506;2023-05-07T18:00:05;2.85;;;1.77;;
29314;SDS011;16320;53.954;9.506;2023-05-07T18:03:12;3.33;;;2.05;;
29314;SDS011;16320;53.954;9.506;2023-05-07T18:06:17;5.68;;;1.70;;
29314;SDS011;16320;53.954;9.506;2023-05-07T18:09:23;3.70;;;2.03;;
29314;SDS011;16320;53.954;9.506;2023-05-07T18:12:28;2.15;;;1.90;;
29314;SDS011;16320;53.954;9.506;2023-05-07T18:15:32;2.53;;;1.73;;
29314;SDS011;16320;53.954;9.506;2023-05-07T18:18:36;2.47;;;1.80;;
29314;SDS011;16320;53.954;9.506;2023-05-07T18:21:41;1.65;;;1.55;;
29314;SDS011;16320;53.954;9.506;2023-05-07T18:24:45;3.25;;;2.35;;
29314;SDS011;16320;53.954;9.506;2023-05-07T18:27:50;3.13;;;2.22;;
29314;SDS011;16320;53.954;9.506;2023-05-07T18:30:54;4.10;;;2.35;;
29314;SDS011;16320;53.954;9.506;2023-05-07T18:33:58;1.70;;;1.60;;
29314;SDS011;16320;53.954;9.506;2023-05-07T18:37:05;2.88;;;2.03;;
29314;SDS011;16320;53.954;9.506;2023-05-07T18:40:09;2.30;;;2.10;;
29314;SDS011;16320;53.954;9.506;2023-05-07T18:43:17;3.13;;;2.25;;
29314;SDS011;16320;53.954;9.506;2023-05-07T18:46:22;4.13;;;2.30;;
29314;SDS011;16320;53.954;9.506;2023-05-07T18:49:26;3.25;;;2.15;;
29314;SDS011;16320;53.954;9.506;2023-05-07T18:52:30;6.55;;;2.55;;
29314;SDS011;16320;53.954;9.506;2023-05-07T18:55:34;2.38;;;2.17;;
29314;SDS011;16320;53.954;9.506;2023-05-07T18:58:39;3.40;;;2.00;;
29314;SDS011;16320;53.954;9.506;2023-05-07T19:01:43;2.40;;;2.20;;
29314;SDS011;16320;53.954;9.506;2023-05-07T19:04:49;3.15;;;2.13;;
29314;SDS011;16320;53.954;9.506;2023-05-07T19:07:53;6.03;;;2.35;;
29314;SDS011;16320;53.954;9.506;2023-05-07T19:10:57;4.40;;;2.38;;
29314;SDS011;16320;53.954;9.506;2023-05-07T19:14:02;2.65;;;2.10;;
29314;SDS011;16320;53.954;9.506;2023-05-07T19:17:08;3.00;;;2.25;;
29314;SDS011;16320;53.954;9.506;2023-05-07T19:20:13;4.32;;;2.20;;
29314;SDS011;16320;53.954;9.506;2023-05-07T19:23:17;6.25;;;2.22;;
29314;SDS011;16320;53.954;9.506;2023-05-07T19:29:26;3.22;;;2.30;;
29314;SDS011;16320;53.954;9.506;2023-05-07T19:32:30;3.58;;;2.15;;
29314;SDS011;16320;53.954;9.506;2023-05-07T19:35:35;2.55;;;2.00;;